sensor_id;sensor_type;location;lat;lon;timestamp;P1;durP1;ratioP1;P2;durP2;ratioP2
71164;SDS011;58859;55.132;-1.586;2022-11-18T00:01:24;13.48;;;2.92;;
71164;SDS011;58859;55.132;-1.586;2022-11-18T00:03:50;15.23;;;3.13;;
71164;SDS011;58859;55.132;-1.586;2022-11-18T00:06:19;13.93;;;2.90;;
71164;SDS011;58859;55.132;-1.586;2022-11-18T00:08:46;19.15;;;3.55;;
71164;SDS011;58859;55.132;-1.586;2022-11-18T00:11:13;16.97;;;3.63;;
71164;SDS011;58859;55.132;-1.586;2022-11-18T00:13:59;17.75;;;3.05;;
71164;SDS011;58859;55.132;-1.586;2022-11-18T00:16:43;16.38;;;3.78;;
71164;SDS011;58859;55.132;-1.586;2022-11-18T00:19:09;19.10;;;2.95;;
71164;SDS011;58859;55.132;-1.586;2022-11-18T00:21:34;13.00;;;2.87;;
71164;SDS011;58859;55.132;-1.586;2022-11-18T00:24:00;15.73;;;3.13;;
71164;SDS011;58859;55.132;-1.586;2022-11-18T00:26:25;13.83;;;3.00;;
71164;SDS011;58859;55.132;-1.586;2022-11-18T00:28:50;25.80;;;3.63;;
71164;SDS011;58859;55.132;-1.586;2022-11-18T00:31:16;21.27;;;3.35;;
71164;SDS011;58859;55.132;-1.586;2022-11-18T00:33:41;18.73;;;2.97;;
71164;SDS011;58859;55.132;-1.586;2022-11-18T00:36:08;24.63;;;3.37;;
71164;SDS011;58859;55.132;-1.586;2022-11-18T00:38:34;18.23;;;4.13;;
71164;SDS011;58859;55.132;-1.586;2022-11-18T00:41:00;18.02;;;3.25;;
71164;SDS011;58859;55.132;-1.586;2022-11-18T00:43:27;14.97;;;2.87;;
71164;SDS011;58859;55.132;-1.586;2022-11-18T00:45:53;17.23;;;3.17;;
71164;SDS011;58859;55.132;-1.586;2022-11-18T00:48:18;16.65;;;3.08;;
71164;SDS011;58859;55.132;-1.586;2022-11-18T00:50:49;17.65;;;3.08;;
71164;SDS011;58859;55.132;-1.586;2022-11-18T00:53:15;16.58;;;3.60;;
71164;SDS011;58859;55.132;-1.586;2022-11-18T00:55:41;15.88;;;2.92;;
71164;SDS011;58859;55.132;-1.586;2022-11-18T00:58:06;23.30;;;4.20;;
71164;SDS011;58859;55.132;-1.586;2022-11-18T01:00:32;21.23;;;3.50;;
71164;SDS011;58859;55.132;-1.586;2022-11-18T01:02:57;12.47;;;2.77;;
71164;SDS011;58859;55.132;-1.586;2022-11-18T01:05:23;16.55;;;2.83;;
71164;SDS011;58859;55.132;-1.586;2022-11-18T01:07:48;9.33;;;2.37;;
71164;SDS011;58859;55.132;-1.586;2022-11-18T01:10:13;10.83;;;2.30;;
71164;SDS011;58859;55.132;-1.586;2022-11-18T01:12:39;16.60;;;2.40;;
71164;SDS011;58859;55.132;-1.586;2022-11-18T01:15:23;11.68;;;2.15;;
71164;SDS011;58859;55.132;-1.586;2022-11-18T01:17:49;19.67;;;2.70;;
71164;SDS011;58859;55.132;-1.586;2022-11-18T01:20:14;10.60;;;2.83;;
71164;SDS011;58859;55.132;-1.586;2022-11-18T01:22:40;9.97;;;2.30;;
71164;SDS011;58859;55.132;-1.586;2022-11-18T01:25:05;10.97;;;2.20;;
71164;SDS011;58859;55.132;-1.586;2022-11-18T01:27:31;8.23;;;2.00;;
71164;SDS011;58859;55.132;-1.586;2022-11-18T01:29:56;8.70;;;1.67;;
71164;SDS011;58859;55.132;-1.586;2022-11-18T01:32:21;12.33;;;5.83;;
71164;SDS011;58859;55.132;-1.586;2022-11-18T01:34:47;12.47;;;2.10;;
71164;SDS011;58859;55.132;-1.586;2022-11-18T01:37:12;9.37;;;2.10;;
71164;SDS011;58859;55.132;-1.586;2022-11-18T01:39:38;11.30;;;1.90;;
71164;SDS011;58859;55.132;-1.586;2022-11-18T01:42:03;10.97;;;2.03;;
71164;SDS011;58859;55.132;-1.586;2022-11-18T01:47:22;11.07;;;2.60;;
71164;SDS011;58859;55.132;-1.586;2022-11-18T01:49:49;12.63;;;2.15;;
71164;SDS011;58859;55.132;-1.586;2022-11-18T01:52:15;13.57;;;2.30;;
71164;SDS011;58859;55.132;-1.586;2022-11-18T01:54:41;10.77;;;1.80;;
71164;SDS011;58859;55.132;-1.586;2022-11-18T01:57:10;12.52;;;2.75;;
71164;SDS011;58859;55.132;-1.586;2022-11-18T01:59:38;9.13;;;2.22;;
71164;SDS011;58859;55.132;-1.586;2022-11-18T02:02:07;17.38;;;3.25;;
71164;SDS011;58859;55.132;-1.586;2022-11-18T02:04:34;14.52;;;2.40;;
71164;SDS011;58859;55.132;-1.586;2022-11-18T02:06:59;21.07;;;3.13;;
71164;SDS011;58859;55.132;-1.586;2022-11-18T02:09:25;15.63;;;2.80;;
71164;SDS011;58859;55.132;-1.586;2022-11-18T02:11:51;20.60;;;4.28;;
71164;SDS011;58859;55.132;-1.586;2022-11-18T02:14:37;31.70;;;5.93;;
71164;SDS011;58859;55.132;-1.586;2022-11-18T02:25:20;22.45;;;3.33;;
71164;SDS011;58859;55.132;-1.586;2022-11-18T02:30:48;19.35;;;3.63;;
71164;SDS011;58859;55.132;-1.586;2022-11-18T02:33:17;21.33;;;3.88;;
71164;SDS011;58859;55.132;-1.586;2022-11-18T02:35:51;20.92;;;3.95;;
71164;SDS011;58859;55.132;-1.586;2022-11-18T02:38:26;22.95;;;4.03;;
71164;SDS011;58859;55.132;-1.586;2022-11-18T02:40:57;19.90;;;3.50;;
71164;SDS011;58859;55.132;-1.586;2022-11-18T02:43:26;22.52;;;3.60;;
71164;SDS011;58859;55.132;-1.586;2022-11-18T02:45:56;25.73;;;4.38;;
71164;SDS011;58859;55.132;-1.586;2022-11-18T02:48:25;32.50;;;4.80;;
71164;SDS011;58859;55.132;-1.586;2022-11-18T02:50:52;31.00;;;4.63;;
71164;SDS011;58859;55.132;-1.586;2022-11-18T02:53:19;24.60;;;5.00;;
71164;SDS011;58859;55.132;-1.586;2022-11-18T02:55:46;28.38;;;4.47;;
71164;SDS011;58859;55.132;-1.586;2022-11-18T02:58:13;27.92;;;4.82;;
71164;SDS011;58859;55.132;-1.586;2022-11-18T03:00:40;25.50;;;4.32;;
71164;SDS011;58859;55.132;-1.586;2022-11-18T03:08:51;29.60;;;5.40;;
71164;SDS011;58859;55.132;-1.586;2022-11-18T03:22:59;20.02;;;4.30;;
71164;SDS011;58859;55.132;-1.586;2022-11-18T03:31:05;22.73;;;3.83;;
71164;SDS011;58859;55.132;-1.586;2022-11-18T03:33:35;17.65;;;4.35;;
71164;SDS011;58859;55.132;-1.586;2022-11-18T03:36:04;23.65;;;4.38;;
71164;SDS011;58859;55.132;-1.586;2022-11-18T03:38:33;26.15;;;3.78;;
71164;SDS011;58859;55.132;-1.586;2022-11-18T03:41:03;24.75;;;5.03;;
71164;SDS011;58859;55.132;-1.586;2022-11-18T03:43:31;22.85;;;5.07;;
71164;SDS011;58859;55.132;-1.586;2022-11-18T03:46:14;25.20;;;4.15;;
71164;SDS011;58859;55.132;-1.586;2022-11-18T03:48:43;21.40;;;4.28;;
71164;SDS011;58859;55.132;-1.586;2022-11-18T03:51:30;21.25;;;4.35;;
71164;SDS011;58859;55.132;-1.586;2022-11-18T03:54:05;25.17;;;4.28;;
71164;SDS011;58859;55.132;-1.586;2022-11-18T03:56:44;21.10;;;4.18;;
71164;SDS011;58859;55.132;-1.586;2022-11-18T03:59:26;25.20;;;4.55;;
71164;SDS011;58859;55.132;-1.586;2022-11-18T04:02:20;30.67;;;4.38;;
71164;SDS011;58859;55.132;-1.586;2022-11-18T04:04:48;11.90;;;2.97;;
71164;SDS011;58859;55.132;-1.586;2022-11-18T04:12:32;21.40;;;3.30;;
71164;SDS011;58859;55.132;-1.586;2022-11-18T04:15:00;12.18;;;3.13;;
71164;SDS011;58859;55.132;-1.586;2022-11-18T04:17:26;20.63;;;3.45;;
71164;SDS011;58859;55.132;-1.586;2022-11-18T04:19:52;12.77;;;2.70;;
71164;SDS011;58859;55.132;-1.586;2022-11-18T04:22:18;16.35;;;2.50;;
71164;SDS011;58859;55.132;-1.586;2022-11-18T04:24:44;15.43;;;2.33;;
71164;SDS011;58859;55.132;-1.586;2022-11-18T04:27:09;15.30;;;2.80;;
71164;SDS011;58859;55.132;-1.586;2022-11-18T04:29:35;17.15;;;2.30;;
71164;SDS011;58859;55.132;-1.586;2022-11-18T04:32:01;18.33;;;3.27;;
71164;SDS011;58859;55.132;-1.586;2022-11-18T04:34:27;12.50;;;2.22;;
71164;SDS011;58859;55.132;-1.586;2022-11-18T04:36:53;10.23;;;2.70;;
71164;SDS011;58859;55.132;-1.586;2022-11-18T04:39:18;17.13;;;3.47;;
71164;SDS011;58859;55.132;-1.586;2022-11-18T04:41:44;12.30;;;2.00;;
71164;SDS011;58859;55.132;-1.586;2022-11-18T04:46:51;18.20;;;2.08;;
71164;SDS011;58859;55.132;-1.586;2022-11-18T04:49:17;14.57;;;2.45;;
71164;SDS011;58859;55.132;-1.586;2022-11-18T04:51:42;22.35;;;3.22;;
71164;SDS011;58859;55.132;-1.586;2022-11-18T04:54:08;20.52;;;2.47;;
71164;SDS011;58859;55.132;-1.586;2022-11-18T04:56:34;11.15;;;2.33;;
71164;SDS011;58859;55.132;-1.586;2022-11-18T04:59:00;14.60;;;3.03;;
71164;SDS011;58859;55.132;-1.586;2022-11-18T05:01:27;14.02;;;2.75;;
71164;SDS011;58859;55.132;-1.586;2022-11-18T05:03:53;17.52;;;3.25;;
71164;SDS011;58859;55.132;-1.586;2022-11-18T05:06:19;16.52;;;3.05;;
71164;SDS011;58859;55.132;-1.586;2022-11-18T05:08:45;12.20;;;2.60;;
71164;SDS011;58859;55.132;-1.586;2022-11-18T05:11:10;19.63;;;3.50;;
71164;SDS011;58859;55.132;-1.586;2022-11-18T05:13:54;12.27;;;2.60;;
71164;SDS011;58859;55.132;-1.586;2022-11-18T05:16:20;18.53;;;2.77;;
71164;SDS011;58859;55.132;-1.586;2022-11-18T05:18:45;20.92;;;2.97;;
71164;SDS011;58859;55.132;-1.586;2022-11-18T05:21:10;26.77;;;3.30;;
71164;SDS011;58859;55.132;-1.586;2022-11-18T05:23:36;22.17;;;4.63;;
71164;SDS011;58859;55.132;-1.586;2022-11-18T05:26:02;17.10;;;3.03;;
71164;SDS011;58859;55.132;-1.586;2022-11-18T05:28:31;20.30;;;3.55;;
71164;SDS011;58859;55.132;-1.586;2022-11-18T05:30:57;20.37;;;4.13;;
71164;SDS011;58859;55.132;-1.586;2022-11-18T05:33:22;19.93;;;3.37;;
71164;SDS011;58859;55.132;-1.586;2022-11-18T05:35:48;23.25;;;3.33;;
71164;SDS011;58859;55.132;-1.586;2022-11-18T05:38:13;15.43;;;3.03;;
71164;SDS011;58859;55.132;-1.586;2022-11-18T05:40:41;16.70;;;2.90;;
71164;SDS011;58859;55.132;-1.586;2022-11-18T05:43:07;20.25;;;2.83;;
71164;SDS011;58859;55.132;-1.586;2022-11-18T05:45:37;13.95;;;3.10;;
71164;SDS011;58859;55.132;-1.586;2022-11-18T05:48:03;20.00;;;3.75;;
71164;SDS011;58859;55.132;-1.586;2022-11-18T05:50:29;19.52;;;3.08;;
71164;SDS011;58859;55.132;-1.586;2022-11-18T05:52:55;18.95;;;3.22;;
71164;SDS011;58859;55.132;-1.586;2022-11-18T05:55:22;14.57;;;3.25;;
71164;SDS011;58859;55.132;-1.586;2022-11-18T05:57:50;15.85;;;3.08;;
71164;SDS011;58859;55.132;-1.586;2022-11-18T06:00:15;12.57;;;2.43;;
71164;SDS011;58859;55.132;-1.586;2022-11-18T06:02:41;21.38;;;2.78;;
71164;SDS011;58859;55.132;-1.586;2022-11-18T06:05:08;14.82;;;3.28;;
71164;SDS011;58859;55.132;-1.586;2022-11-18T06:07:35;17.80;;;3.10;;
71164;SDS011;58859;55.132;-1.586;2022-11-18T06:10:03;17.90;;;3.03;;
71164;SDS011;58859;55.132;-1.586;2022-11-18T06:12:30;18.55;;;3.28;;
71164;SDS011;58859;55.132;-1.586;2022-11-18T06:15:22;16.60;;;3.45;;
71164;SDS011;58859;55.132;-1.586;2022-11-18T06:17:51;15.13;;;3.40;;
71164;SDS011;58859;55.132;-1.586;2022-11-18T06:20:20;13.32;;;3.50;;
71164;SDS011;58859;55.132;-1.586;2022-11-18T06:22:50;13.25;;;3.22;;
71164;SDS011;58859;55.132;-1.586;2022-11-18T06:25:17;17.13;;;3.43;;
71164;SDS011;58859;55.132;-1.586;2022-11-18T06:27:43;16.88;;;2.90;;
71164;SDS011;58859;55.132;-1.586;2022-11-18T06:30:09;17.67;;;4.27;;
71164;SDS011;58859;55.132;-1.586;2022-11-18T06:32:35;14.88;;;2.72;;
71164;SDS011;58859;55.132;-1.586;2022-11-18T06:35:01;15.70;;;3.77;;
71164;SDS011;58859;55.132;-1.586;2022-11-18T06:37:26;11.17;;;3.30;;
71164;SDS011;58859;55.132;-1.586;2022-11-18T06:39:51;17.25;;;3.90;;
71164;SDS011;58859;55.132;-1.586;2022-11-18T06:42:17;12.45;;;2.30;;
71164;SDS011;58859;55.132;-1.586;2022-11-18T06:45:12;15.02;;;3.05;;
71164;SDS011;58859;55.132;-1.586;2022-11-18T06:47:37;7.25;;;2.50;;
71164;SDS011;58859;55.132;-1.586;2022-11-18T06:50:03;14.87;;;3.00;;
71164;SDS011;58859;55.132;-1.586;2022-11-18T06:52:28;12.38;;;2.95;;
71164;SDS011;58859;55.132;-1.586;2022-11-18T06:54:54;17.07;;;2.30;;
71164;SDS011;58859;55.132;-1.586;2022-11-18T06:57:19;10.90;;;2.27;;
71164;SDS011;58859;55.132;-1.586;2022-11-18T06:59:45;13.93;;;3.37;;
71164;SDS011;58859;55.132;-1.586;2022-11-18T07:02:10;12.90;;;2.77;;
71164;SDS011;58859;55.132;-1.586;2022-11-18T07:04:36;10.30;;;2.00;;
71164;SDS011;58859;55.132;-1.586;2022-11-18T07:07:04;12.65;;;2.10;;
71164;SDS011;58859;55.132;-1.586;2022-11-18T07:09:30;10.90;;;3.50;;
71164;SDS011;58859;55.132;-1.586;2022-11-18T07:11:55;15.73;;;2.50;;
71164;SDS011;58859;55.132;-1.586;2022-11-18T07:14:21;7.10;;;1.70;;
71164;SDS011;58859;55.132;-1.586;2022-11-18T07:16:46;7.70;;;2.67;;
71164;SDS011;58859;55.132;-1.586;2022-11-18T07:19:12;10.97;;;2.40;;
71164;SDS011;58859;55.132;-1.586;2022-11-18T07:21:38;7.88;;;1.63;;
71164;SDS011;58859;55.132;-1.586;2022-11-18T07:24:05;8.07;;;2.10;;
71164;SDS011;58859;55.132;-1.586;2022-11-18T07:26:31;8.13;;;1.75;;
71164;SDS011;58859;55.132;-1.586;2022-11-18T07:28:57;7.95;;;1.92;;
71164;SDS011;58859;55.132;-1.586;2022-11-18T07:31:22;6.20;;;1.50;;
71164;SDS011;58859;55.132;-1.586;2022-11-18T07:33:48;10.13;;;2.37;;
71164;SDS011;58859;55.132;-1.586;2022-11-18T07:36:14;12.73;;;2.00;;
71164;SDS011;58859;55.132;-1.586;2022-11-18T07:38:41;7.10;;;1.65;;
71164;SDS011;58859;55.132;-1.586;2022-11-18T07:41:08;4.43;;;1.60;;
71164;SDS011;58859;55.132;-1.586;2022-11-18T07:43:35;3.40;;;1.30;;
71164;SDS011;58859;55.132;-1.586;2022-11-18T07:46:11;5.70;;;0.95;;
71164;SDS011;58859;55.132;-1.586;2022-11-18T07:48:38;5.38;;;1.60;;
71164;SDS011;58859;55.132;-1.586;2022-11-18T07:51:03;6.70;;;1.70;;
71164;SDS011;58859;55.132;-1.586;2022-11-18T07:53:29;2.17;;;0.65;;
71164;SDS011;58859;55.132;-1.586;2022-11-18T07:55:55;3.03;;;0.80;;
71164;SDS011;58859;55.132;-1.586;2022-11-18T07:58:21;2.63;;;1.03;;
71164;SDS011;58859;55.132;-1.586;2022-11-18T08:00:46;2.10;;;1.00;;
71164;SDS011;58859;55.132;-1.586;2022-11-18T08:03:11;2.83;;;0.67;;
71164;SDS011;58859;55.132;-1.586;2022-11-18T08:05:37;2.63;;;0.60;;
71164;SDS011;58859;55.132;-1.586;2022-11-18T08:08:02;1.23;;;0.60;;
71164;SDS011;58859;55.132;-1.586;2022-11-18T08:10:28;3.60;;;0.70;;
71164;SDS011;58859;55.132;-1.586;2022-11-18T08:12:55;2.67;;;0.97;;
71164;SDS011;58859;55.132;-1.586;2022-11-18T08:15:21;1.20;;;0.63;;
71164;SDS011;58859;55.132;-1.586;2022-11-18T08:17:46;1.60;;;0.57;;
71164;SDS011;58859;55.132;-1.586;2022-11-18T08:20:12;1.90;;;0.98;;
71164;SDS011;58859;55.132;-1.586;2022-11-18T08:22:37;2.83;;;0.60;;
71164;SDS011;58859;55.132;-1.586;2022-11-18T08:25:03;0.70;;;0.60;;
71164;SDS011;58859;55.132;-1.586;2022-11-18T08:27:30;1.30;;;0.50;;
71164;SDS011;58859;55.132;-1.586;2022-11-18T08:29:55;0.77;;;0.57;;
71164;SDS011;58859;55.132;-1.586;2022-11-18T08:32:21;1.73;;;0.30;;
71164;SDS011;58859;55.132;-1.586;2022-11-18T08:34:46;0.40;;;0.40;;
71164;SDS011;58859;55.132;-1.586;2022-11-18T08:37:11;0.40;;;0.40;;
71164;SDS011;58859;55.132;-1.586;2022-11-18T08:39:37;0.47;;;0.47;;
71164;SDS011;58859;55.132;-1.586;2022-11-18T08:42:02;0.50;;;0.50;;
71164;SDS011;58859;55.132;-1.586;2022-11-18T08:44:28;2.73;;;0.60;;
71164;SDS011;58859;55.132;-1.586;2022-11-18T08:46:57;0.73;;;0.40;;
71164;SDS011;58859;55.132;-1.586;2022-11-18T08:49:22;0.70;;;0.60;;
71164;SDS011;58859;55.132;-1.586;2022-11-18T08:51:47;1.23;;;0.60;;
71164;SDS011;58859;55.132;-1.586;2022-11-18T08:54:13;1.50;;;0.45;;
71164;SDS011;58859;55.132;-1.586;2022-11-18T08:56:38;1.40;;;0.47;;
71164;SDS011;58859;55.132;-1.586;2022-11-18T08:59:04;0.73;;;0.73;;
71164;SDS011;58859;55.132;-1.586;2022-11-18T09:01:29;0.90;;;0.43;;
71164;SDS011;58859;55.132;-1.586;2022-11-18T09:03:55;0.60;;;0.60;;
71164;SDS011;58859;55.132;-1.586;2022-11-18T09:06:21;1.70;;;0.60;;
71164;SDS011;58859;55.132;-1.586;2022-11-18T09:08:48;0.50;;;0.43;;
71164;SDS011;58859;55.132;-1.586;2022-11-18T09:11:15;0.52;;;0.52;;
71164;SDS011;58859;55.132;-1.586;2022-11-18T09:13:42;1.33;;;0.43;;
71164;SDS011;58859;55.132;-1.586;2022-11-18T09:16:07;0.68;;;0.63;;
71164;SDS011;58859;55.132;-1.586;2022-11-18T09:18:33;0.53;;;0.40;;
71164;SDS011;58859;55.132;-1.586;2022-11-18T09:21:00;0.75;;;0.20;;
71164;SDS011;58859;55.132;-1.586;2022-11-18T09:23:27;0.40;;;0.40;;
71164;SDS011;58859;55.132;-1.586;2022-11-18T09:25:59;1.48;;;0.38;;
71164;SDS011;58859;55.132;-1.586;2022-11-18T09:28:29;0.60;;;0.60;;
71164;SDS011;58859;55.132;-1.586;2022-11-18T09:30:54;0.40;;;0.32;;
71164;SDS011;58859;55.132;-1.586;2022-11-18T09:33:20;0.97;;;0.70;;
71164;SDS011;58859;55.132;-1.586;2022-11-18T09:35:46;0.60;;;0.60;;
71164;SDS011;58859;55.132;-1.586;2022-11-18T09:38:11;0.97;;;0.50;;
71164;SDS011;58859;55.132;-1.586;2022-11-18T09:40:41;4.72;;;0.60;;
71164;SDS011;58859;55.132;-1.586;2022-11-18T09:43:18;0.88;;;0.88;;
71164;SDS011;58859;55.132;-1.586;2022-11-18T09:45:45;1.42;;;0.50;;
71164;SDS011;58859;55.132;-1.586;2022-11-18T09:48:19;0.70;;;0.70;;
71164;SDS011;58859;55.132;-1.586;2022-11-18T09:51:07;0.65;;;0.65;;
71164;SDS011;58859;55.132;-1.586;2022-11-18T09:53:34;0.45;;;0.45;;
71164;SDS011;58859;55.132;-1.586;2022-11-18T09:55:59;0.43;;;0.40;;
71164;SDS011;58859;55.132;-1.586;2022-11-18T09:58:33;1.55;;;0.40;;
71164;SDS011;58859;55.132;-1.586;2022-11-18T10:00:59;0.37;;;0.37;;
71164;SDS011;58859;55.132;-1.586;2022-11-18T10:03:26;0.40;;;0.40;;
71164;SDS011;58859;55.132;-1.586;2022-11-18T10:11:11;0.50;;;0.50;;
71164;SDS011;58859;55.132;-1.586;2022-11-18T10:13:50;0.30;;;0.30;;
71164;SDS011;58859;55.132;-1.586;2022-11-18T10:24:52;0.60;;;0.57;;
71164;SDS011;58859;55.132;-1.586;2022-11-18T10:27:18;0.30;;;0.30;;
71164;SDS011;58859;55.132;-1.586;2022-11-18T10:29:45;0.32;;;0.17;;
71164;SDS011;58859;55.132;-1.586;2022-11-18T10:32:15;0.60;;;0.60;;
71164;SDS011;58859;55.132;-1.586;2022-11-18T10:34:49;0.57;;;0.57;;
71164;SDS011;58859;55.132;-1.586;2022-11-18T10:39:50;0.60;;;0.60;;
71164;SDS011;58859;55.132;-1.586;2022-11-18T10:42:19;0.65;;;0.65;;
71164;SDS011;58859;55.132;-1.586;2022-11-18T10:45:21;0.40;;;0.40;;
71164;SDS011;58859;55.132;-1.586;2022-11-18T10:50:43;0.73;;;0.73;;
71164;SDS011;58859;55.132;-1.586;2022-11-18T10:56:12;1.25;;;0.93;;
71164;SDS011;58859;55.132;-1.586;2022-11-18T10:58:40;0.63;;;0.50;;
71164;SDS011;58859;55.132;-1.586;2022-11-18T11:01:23;0.93;;;0.70;;
71164;SDS011;58859;55.132;-1.586;2022-11-18T11:03:57;0.70;;;0.70;;
71164;SDS011;58859;55.132;-1.586;2022-11-18T11:06:29;0.40;;;0.40;;
71164;SDS011;58859;55.132;-1.586;2022-11-18T11:14:22;0.40;;;0.40;;
71164;SDS011;58859;55.132;-1.586;2022-11-18T11:17:08;0.60;;;0.60;;
71164;SDS011;58859;55.132;-1.586;2022-11-18T11:19:43;0.55;;;0.55;;
71164;SDS011;58859;55.132;-1.586;2022-11-18T11:22:15;0.65;;;0.65;;
71164;SDS011;58859;55.132;-1.586;2022-11-18T11:24:41;0.32;;;0.32;;
71164;SDS011;58859;55.132;-1.586;2022-11-18T11:37:52;0.75;;;0.60;;
71164;SDS011;58859;55.132;-1.586;2022-11-18T11:40:36;0.60;;;0.60;;
71164;SDS011;58859;55.132;-1.586;2022-11-18T11:51:15;0.43;;;0.43;;
71164;SDS011;58859;55.132;-1.586;2022-11-18T11:57:04;0.57;;;0.30;;
71164;SDS011;58859;55.132;-1.586;2022-11-18T12:00:10;1.85;;;0.50;;
71164;SDS011;58859;55.132;-1.586;2022-11-18T12:07:59;0.30;;;0.30;;
71164;SDS011;58859;55.132;-1.586;2022-11-18T12:13:44;0.45;;;0.45;;
71164;SDS011;58859;55.132;-1.586;2022-11-18T12:19:11;0.57;;;0.57;;
71164;SDS011;58859;55.132;-1.586;2022-11-18T12:26:58;1.00;;;0.50;;
71164;SDS011;58859;55.132;-1.586;2022-11-18T12:34:55;1.55;;;1.38;;
71164;SDS011;58859;55.132;-1.586;2022-11-18T12:50:48;0.50;;;0.50;;
71164;SDS011;58859;55.132;-1.586;2022-11-18T12:56:27;0.77;;;0.77;;
71164;SDS011;58859;55.132;-1.586;2022-11-18T12:58:58;0.73;;;0.73;;
71164;SDS011;58859;55.132;-1.586;2022-11-18T13:01:25;0.90;;;0.90;;
71164;SDS011;58859;55.132;-1.586;2022-11-18T13:04:06;0.30;;;0.30;;
71164;SDS011;58859;55.132;-1.586;2022-11-18T13:06:33;0.50;;;0.50;;
71164;SDS011;58859;55.132;-1.586;2022-11-18T13:09:01;0.50;;;0.50;;
71164;SDS011;58859;55.132;-1.586;2022-11-18T13:11:29;0.60;;;0.60;;
71164;SDS011;58859;55.132;-1.586;2022-11-18T13:14:12;0.45;;;0.45;;
71164;SDS011;58859;55.132;-1.586;2022-11-18T13:17:01;2.15;;;0.50;;
71164;SDS011;58859;55.132;-1.586;2022-11-18T13:19:55;0.70;;;0.70;;
71164;SDS011;58859;55.132;-1.586;2022-11-18T13:22:21;0.80;;;0.68;;
71164;SDS011;58859;55.132;-1.586;2022-11-18T13:25:19;0.77;;;0.77;;
71164;SDS011;58859;55.132;-1.586;2022-11-18T13:28:10;0.52;;;0.50;;
71164;SDS011;58859;55.132;-1.586;2022-11-18T13:30:50;1.25;;;0.82;;
71164;SDS011;58859;55.132;-1.586;2022-11-18T13:33:23;0.60;;;0.60;;
71164;SDS011;58859;55.132;-1.586;2022-11-18T13:35:49;0.40;;;0.40;;
71164;SDS011;58859;55.132;-1.586;2022-11-18T13:38:22;0.77;;;0.30;;
71164;SDS011;58859;55.132;-1.586;2022-11-18T13:40:49;0.27;;;0.27;;
71164;SDS011;58859;55.132;-1.586;2022-11-18T13:43:37;0.20;;;0.20;;
71164;SDS011;58859;55.132;-1.586;2022-11-18T13:46:04;1.38;;;0.70;;
71164;SDS011;58859;55.132;-1.586;2022-11-18T13:48:32;1.58;;;0.40;;
71164;SDS011;58859;55.132;-1.586;2022-11-18T13:50:59;0.85;;;0.30;;
71164;SDS011;58859;55.132;-1.586;2022-11-18T13:53:27;0.28;;;0.28;;
71164;SDS011;58859;55.132;-1.586;2022-11-18T13:55:57;3.05;;;0.30;;
71164;SDS011;58859;55.132;-1.586;2022-11-18T13:58:32;0.28;;;0.28;;
71164;SDS011;58859;55.132;-1.586;2022-11-18T14:01:05;0.30;;;0.30;;
71164;SDS011;58859;55.132;-1.586;2022-11-18T14:03:50;0.65;;;0.65;;
71164;SDS011;58859;55.132;-1.586;2022-11-18T14:09:03;0.28;;;0.28;;
71164;SDS011;58859;55.132;-1.586;2022-11-18T14:11:35;0.73;;;0.73;;
71164;SDS011;58859;55.132;-1.586;2022-11-18T14:14:02;0.47;;;0.47;;
71164;SDS011;58859;55.132;-1.586;2022-11-18T14:16:32;1.88;;;0.60;;
71164;SDS011;58859;55.132;-1.586;2022-11-18T14:18:59;0.75;;;0.75;;
71164;SDS011;58859;55.132;-1.586;2022-11-18T14:21:28;0.10;;;0.10;;
71164;SDS011;58859;55.132;-1.586;2022-11-18T14:23:55;1.55;;;0.60;;
71164;SDS011;58859;55.132;-1.586;2022-11-18T14:26:28;0.27;;;0.27;;
71164;SDS011;58859;55.132;-1.586;2022-11-18T14:28:56;2.13;;;0.40;;
71164;SDS011;58859;55.132;-1.586;2022-11-18T14:31:29;0.65;;;0.40;;
71164;SDS011;58859;55.132;-1.586;2022-11-18T14:36:48;0.65;;;0.50;;
71164;SDS011;58859;55.132;-1.586;2022-11-18T14:39:21;2.60;;;0.40;;
71164;SDS011;58859;55.132;-1.586;2022-11-18T14:41:54;0.50;;;0.50;;
71164;SDS011;58859;55.132;-1.586;2022-11-18T14:44:20;0.60;;;0.60;;
71164;SDS011;58859;55.132;-1.586;2022-11-18T14:46:48;0.40;;;0.40;;
71164;SDS011;58859;55.132;-1.586;2022-11-18T14:49:37;0.55;;;0.55;;
71164;SDS011;58859;55.132;-1.586;2022-11-18T14:52:03;1.03;;;0.50;;
71164;SDS011;58859;55.132;-1.586;2022-11-18T14:54:28;0.97;;;0.60;;
71164;SDS011;58859;55.132;-1.586;2022-11-18T14:56:58;0.45;;;0.45;;
71164;SDS011;58859;55.132;-1.586;2022-11-18T14:59:25;0.35;;;0.35;;
71164;SDS011;58859;55.132;-1.586;2022-11-18T15:01:50;0.98;;;0.30;;
71164;SDS011;58859;55.132;-1.586;2022-11-18T15:04:16;0.30;;;0.30;;
71164;SDS011;58859;55.132;-1.586;2022-11-18T15:06:42;0.60;;;0.60;;
71164;SDS011;58859;55.132;-1.586;2022-11-18T15:09:07;1.58;;;0.60;;
71164;SDS011;58859;55.132;-1.586;2022-11-18T15:11:33;0.50;;;0.50;;
71164;SDS011;58859;55.132;-1.586;2022-11-18T15:13:59;0.50;;;0.50;;
71164;SDS011;58859;55.132;-1.586;2022-11-18T15:16:26;0.60;;;0.57;;
71164;SDS011;58859;55.132;-1.586;2022-11-18T15:18:53;0.35;;;0.35;;
71164;SDS011;58859;55.132;-1.586;2022-11-18T15:21:20;0.52;;;0.38;;
71164;SDS011;58859;55.132;-1.586;2022-11-18T15:23:45;0.95;;;0.43;;
71164;SDS011;58859;55.132;-1.586;2022-11-18T15:26:18;2.40;;;0.60;;
71164;SDS011;58859;55.132;-1.586;2022-11-18T15:28:47;0.52;;;0.52;;
71164;SDS011;58859;55.132;-1.586;2022-11-18T15:31:14;1.55;;;0.60;;
71164;SDS011;58859;55.132;-1.586;2022-11-18T15:33:41;2.75;;;0.63;;
71164;SDS011;58859;55.132;-1.586;2022-11-18T15:36:10;0.50;;;0.50;;
71164;SDS011;58859;55.132;-1.586;2022-11-18T15:38:37;1.55;;;0.77;;
71164;SDS011;58859;55.132;-1.586;2022-11-18T15:41:03;0.50;;;0.50;;
71164;SDS011;58859;55.132;-1.586;2022-11-18T15:43:28;1.52;;;0.40;;
71164;SDS011;58859;55.132;-1.586;2022-11-18T15:45:57;2.50;;;0.90;;
71164;SDS011;58859;55.132;-1.586;2022-11-18T15:48:23;1.92;;;1.35;;
71164;SDS011;58859;55.132;-1.586;2022-11-18T15:50:48;1.57;;;0.67;;
71164;SDS011;58859;55.132;-1.586;2022-11-18T15:53:14;1.57;;;0.77;;
71164;SDS011;58859;55.132;-1.586;2022-11-18T15:55:39;2.47;;;1.43;;
71164;SDS011;58859;55.132;-1.586;2022-11-18T15:58:05;6.65;;;1.90;;
71164;SDS011;58859;55.132;-1.586;2022-11-18T16:00:30;3.77;;;1.60;;
71164;SDS011;58859;55.132;-1.586;2022-11-18T16:02:55;4.07;;;1.27;;
71164;SDS011;58859;55.132;-1.586;2022-11-18T16:05:21;1.23;;;0.67;;
71164;SDS011;58859;55.132;-1.586;2022-11-18T16:07:46;0.57;;;0.43;;
71164;SDS011;58859;55.132;-1.586;2022-11-18T16:10:12;3.53;;;0.80;;
71164;SDS011;58859;55.132;-1.586;2022-11-18T16:12:56;3.67;;;1.42;;
71164;SDS011;58859;55.132;-1.586;2022-11-18T16:15:21;2.37;;;1.30;;
71164;SDS011;58859;55.132;-1.586;2022-11-18T16:18:05;0.60;;;0.60;;
71164;SDS011;58859;55.132;-1.586;2022-11-18T16:20:30;0.90;;;0.90;;
71164;SDS011;58859;55.132;-1.586;2022-11-18T16:22:56;1.40;;;1.30;;
71164;SDS011;58859;55.132;-1.586;2022-11-18T16:25:22;1.80;;;1.70;;
71164;SDS011;58859;55.132;-1.586;2022-11-18T16:27:47;1.55;;;1.40;;
71164;SDS011;58859;55.132;-1.586;2022-11-18T16:30:13;1.50;;;1.40;;
71164;SDS011;58859;55.132;-1.586;2022-11-18T16:32:57;1.77;;;1.30;;
71164;SDS011;58859;55.132;-1.586;2022-11-18T16:35:23;1.33;;;1.20;;
71164;SDS011;58859;55.132;-1.586;2022-11-18T16:37:49;1.13;;;1.13;;
71164;SDS011;58859;55.132;-1.586;2022-11-18T16:40:14;3.05;;;1.20;;
71164;SDS011;58859;55.132;-1.586;2022-11-18T16:42:40;0.90;;;0.90;;
71164;SDS011;58859;55.132;-1.586;2022-11-18T16:45:06;1.38;;;0.95;;
71164;SDS011;58859;55.132;-1.586;2022-11-18T16:47:31;1.65;;;0.90;;
71164;SDS011;58859;55.132;-1.586;2022-11-18T16:49:56;1.40;;;1.30;;
71164;SDS011;58859;55.132;-1.586;2022-11-18T16:52:22;3.27;;;1.37;;
71164;SDS011;58859;55.132;-1.586;2022-11-18T16:54:48;5.72;;;1.30;;
71164;SDS011;58859;55.132;-1.586;2022-11-18T16:57:14;2.23;;;1.50;;